Date,TemperatureHighF,TemperatureAvgF,TemperatureLowF,DewpointHighF,DewpointAvgF,DewpointLowF,HumidityHigh,HumidityAvg,HumidityLow,PressureMaxIn,PressureMinIn,WindSpeedMaxMPH,WindSpeedAvgMPH,GustSpeedMaxMPH,PrecipitationSumIn
2013-1-1,18.2,9.9,4.2,6.4,1.7,-2.0,65,57,46,30.18,30.07,6,2,8,0.00
2013-1-2,24.4,18.1,11.3,16.2,10.2,3.1,70,60,49,30.09,29.97,7,3,11,0.01
2013-1-3,27.6,21.2,10.1,20.4,15.6,4.0,77,71,63,30.17,29.99,8,4,13,0.00
2013-1-4,29.1,19.2,9.4,19.7,12.8,3.7,74,67,56,30.13,30.02,10,6,16,0.00
2013-1-5,34.3,26.6,16.7,30.7,21.8,12.4,83,75,66,30.14,29.82,8,4,14,0.00
2013-1-6,33.3,24.3,15.6,28.2,18.0,10.3,75,68,61,30.21,29.82,10,3,15,0.00
2013-1-7,35.9,25.4,14.1,26.3,18.7,9.1,73,67,57,30.21,29.97,11,6,16,0.01
2013-1-8,38.5,32.0,24.9,30.8,26.4,21.0,80,73,63,30.03,29.88,10,4,14,0.06
2013-1-9,38.8,33.8,27.2,30.6,26.1,20.9,76,65,53,30.38,29.87,14,6,27,0.00
2013-1-10,41.3,32.9,26.0,32.9,26.7,20.8,85,70,54,30.41,29.82,4,1,7,0.28
2013-1-11,43.8,39.7,35.9,42.0,37.3,33.0,91,88,85,29.80,29.55,8,3,14,0.03
2013-1-12,44.3,32.6,21.7,41.0,26.4,15.7,88,70,60,29.96,29.56,14,6,26,0.00
2013-1-13,22.1,17.9,12.7,15.9,9.5,4.9,68,58,49,30.13,29.84,9,3,12,0.00
2013-1-14,26.3,16.5,8.9,13.1,7.6,2.5,64,56,43,30.35,30.13,5,2,8,0.00
2013-1-15,30.2,18.9,14.7,16.6,11.0,8.3,67,61,43,30.33,30.20,8,2,12,0.00
2013-1-16,34.6,31.9,24.3,29.6,25.2,16.0,76,68,56,30.05,29.78,10,5,17,0.00
2013-1-17,28.4,22.3,17.0,19.6,10.8,6.3,61,49,34,30.36,30.06,6,2,11,0.00
2013-1-18,42.0,31.0,18.4,32.1,23.3,10.7,69,64,57,30.37,29.83,12,6,20,0.00
2013-1-19,44.7,36.7,15.9,34.6,27.8,4.3,75,61,36,29.97,29.68,20,8,33,0.01
2013-1-20,16.5,11.7,6.9,3.9,0.3,-2.3,53,46,35,30.29,29.99,9,4,14,0.00
2013-1-21,10.8,4.1,-0.8,0.8,-6.5,-10.1,57,46,35,30.23,30.10,7,4,17,0.00
2013-1-22,9.7,3.2,-3.4,-2.3,-7.1,-11.6,56,47,39,30.30,30.22,5,2,9,0.00
2013-1-23,19.8,13.2,4.9,12.2,4.2,-5.2,67,54,44,30.38,30.04,9,4,14,0.00
2013-1-24,18.0,9.2,0.3,9.4,-1.3,-8.1,59,48,37,30.59,30.30,5,2,8,0.00
2013-1-25,27.0,20.2,14.1,16.4,12.0,6.0,71,59,49,30.29,29.92,7,4,16,0.00
2013-1-26,27.4,18.6,8.9,14.4,8.3,2.2,63,52,37,30.37,30.19,5,2,9,0.00
2013-1-27,34.2,28.6,22.4,31.3,22.2,13.4,85,69,56,30.29,29.85,7,3,11,0.06
2013-1-28,42.8,37.3,34.3,35.3,33.1,31.4,87,79,66,29.95,29.78,5,1,9,0.17
2013-1-29,52.1,42.5,34.4,50.2,40.2,31.9,92,89,86,29.77,29.51,7,3,10,1.30
2013-1-30,34.4,27.3,15.7,32.1,23.9,10.3,88,82,70,29.63,29.36,7,4,13,0.07
2013-1-31,15.3,10.4,0.6,9.9,3.5,-5.6,71,62,51,30.13,29.64,7,4,11,0.00
2013-2-1,7.1,1.3,-6.9,1.2,-6.5,-13.3,66,56,45,30.29,30.10,7,4,11,0.00
2013-2-2,15.5,10.5,6.7,5.4,3.1,1.2,69,60,49,30.09,30.00,5,2,9,0.00
2013-2-3,22.6,15.7,9.7,12.8,8.4,3.5,72,62,50,30.02,29.92,8,3,15,0.00
2013-2-4,20.7,16.7,12.7,13.1,9.5,5.5,71,63,50,29.98,29.91,5,2,8,0.00
2013-2-5,30.5,21.0,9.4,23.5,14.8,2.5,74,67,59,30.08,29.78,10,4,17,0.00
2013-2-6,34.5,25.3,14.0,29.7,18.7,8.8,77,67,54,30.19,30.05,4,1,7,0.03
2013-2-7,36.9,32.6,22.9,32.5,28.8,19.4,84,81,77,30.08,29.91,8,2,12,0.10
2013-2-8,28.6,22.7,15.6,18.9,16.6,10.5,80,69,55,30.37,30.09,6,2,9,0.05
2013-2-9,30.3,24.1,15.0,24.3,19.6,10.0,81,76,69,30.37,30.06,9,3,13,0.00
2013-2-10,40.1,33.8,24.9,38.3,30.9,21.3,90,85,80,30.05,29.40,13,4,18,0.50
2013-2-11,36.2,29.5,23.9,32.2,24.0,17.6,81,72,63,30.00,29.42,17,9,27,0.00
2013-2-12,31.6,25.1,20.9,22.5,18.2,14.8,77,66,57,30.08,29.87,10,3,15,0.00
2013-2-13,39.6,30.9,22.3,29.3,24.7,18.5,80,70,56,29.87,29.69,6,2,11,0.00
2013-2-14,37.9,33.7,28.3,31.5,26.5,20.8,81,67,50,29.99,29.58,9,4,15,0.02
2013-2-15,28.8,21.1,12.2,20.8,9.7,2.6,66,49,33,30.20,30.01,6,2,11,0.00
2013-2-16,20.6,13.3,7.8,6.9,2.5,0.5,61,49,34,30.19,30.13,5,1,7,0.00
2013-2-17,29.7,19.2,8.6,19.1,8.7,-1.0,65,51,40,30.17,29.91,7,2,12,0.00
2013-2-18,46.6,34.0,22.9,36.6,27.4,17.6,84,69,58,29.90,29.50,9,4,16,0.10
2013-2-19,21.5,13.6,7.8,15.9,5.9,-1.8,73,60,50,30.17,29.60,10,5,17,0.00
2013-2-20,26.7,14.9,4.6,12.7,4.8,-3.3,58,51,41,30.36,30.19,6,2,10,0.00
2013-2-21,25.6,19.9,11.9,21.2,13.4,5.2,81,66,53,30.39,30.04,6,2,13,0.00
2013-2-22,37.2,28.8,24.4,27.9,23.3,20.6,80,72,58,30.01,29.79,6,2,9,0.08
2013-2-23,32.8,26.4,22.7,22.2,19.2,16.5,74,65,52,29.95,29.86,8,5,13,0.02
2013-2-24,41.4,28.5,17.0,26.2,19.4,11.4,72,59,42,30.13,29.95,5,2,7,0.02
2013-2-25,44.5,32.8,23.6,30.2,23.8,17.5,72,60,45,30.16,30.03,4,1,6,0.00
2013-2-26,34.7,30.9,28.1,27.3,25.6,23.8,87,74,63,30.02,29.66,12,5,18,0.01
2013-2-27,34.5,30.5,27.6,29.5,27.1,24.6,87,82,75,29.81,29.65,7,5,14,0.07
2013-2-28,36.8,31.4,25.2,27.9,25.4,18.6,83,71,56,30.13,29.81,7,4,12,0.02
2013-3-1,30.2,24.4,18.5,20.1,17.2,12.3,76,64,52,30.25,30.14,7,2,13,0.00
2013-3-2,30.9,20.7,11.7,15.0,10.8,6.1,69,54,37,30.25,30.17,5,2,8,0.00
2013-3-3,36.1,23.2,14.3,17.2,10.5,5.8,58,46,29,30.17,30.08,2,0,4,0.00
2013-3-4,37.6,26.8,16.7,24.7,17.4,8.1,68,57,47,30.12,30.00,4,2,10,0.00
2013-3-5,32.0,28.6,25.2,26.6,23.9,20.9,81,76,69,30.10,29.89,6,3,13,0.10
2013-3-6,36.6,29.1,24.6,26.4,22.4,19.9,78,67,55,30.32,30.11,6,2,11,0.05
2013-3-7,42.2,29.5,18.8,26.2,20.0,13.1,70,58,40,30.40,30.31,6,1,8,0.01
2013-3-8,42.0,30.8,20.9,29.4,23.1,15.9,78,65,50,30.44,30.26,8,2,14,0.00
2013-3-9,41.9,35.9,30.3,34.6,30.4,24.0,86,74,61,30.26,29.81,8,4,14,0.45
2013-3-10,40.8,37.9,34.9,38.4,35.4,32.4,89,87,85,29.81,29.65,6,2,10,0.69
2013-3-11,35.7,33.0,30.7,32.3,29.7,25.8,88,83,75,29.78,29.59,4,2,9,0.02
2013-3-12,34.1,28.7,24.0,26.8,22.7,18.6,80,70,57,30.02,29.79,7,4,17,0.02
2013-3-13,36.4,26.3,18.1,18.6,13.4,10.4,71,48,24,30.32,30.03,7,3,15,0.00
2013-3-14,39.9,28.8,18.9,29.4,20.2,11.9,78,60,47,30.32,30.09,8,2,12,0.01
2013-3-15,38.3,33.0,28.3,32.7,28.6,24.7,81,78,68,30.09,29.83,4,1,9,0.21
2013-3-16,33.6,28.0,21.6,26.3,21.2,17.6,80,67,54,30.14,29.81,7,3,11,0.01
2013-3-17,37.1,26.4,17.3,22.5,16.1,8.5,65,54,42,30.24,30.04,4,2,10,0.00
2013-3-18,40.1,27.8,17.6,31.6,21.8,10.4,77,70,60,30.04,29.61,11,3,19,0.16
2013-3-19,33.0,20.4,10.8,15.4,9.7,4.5,65,52,33,30.06,29.75,12,8,23,0.00
2013-3-20,27.0,16.6,7.8,10.6,4.6,-1.4,53,45,33,30.09,30.02,9,4,17,0.00
2013-3-21,35.9,21.4,9.7,16.7,8.6,1.6,57,45,30,30.07,30.01,5,2,10,0.01
2013-3-22,40.7,27.9,16.1,21.3,14.4,7.4,57,45,32,30.08,30.02,3,1,6,0.00
2013-3-23,41.9,32.3,23.8,22.7,19.6,16.4,64,48,33,30.14,30.07,4,1,7,0.00
2013-3-24,32.9,30.2,28.8,26.5,23.8,20.8,77,69,59,30.09,29.81,9,3,14,0.01
2013-3-25,35.2,30.5,25.0,24.8,22.1,18.1,68,61,53,30.12,29.85,8,4,12,0.00
2013-3-26,44.7,36.1,29.9,28.5,24.3,21.5,63,51,40,30.27,30.11,5,2,9,0.00
2013-3-27,44.8,37.7,32.2,28.0,23.5,20.6,62,46,30,30.34,30.27,4,1,9,0.00
2013-3-28,49.0,38.5,28.8,25.0,22.1,18.3,54,41,27,30.36,30.29,4,1,9,0.00
2013-3-29,54.2,42.4,32.2,29.3,25.4,21.7,59,41,24,30.34,30.25,3,1,5,0.00
2013-3-30,52.7,43.3,34.6,40.5,33.1,24.8,83,58,47,30.25,29.87,9,4,17,0.01
2013-3-31,49.8,40.6,32.6,40.2,33.1,20.1,85,68,46,29.94,29.77,8,4,14,0.00
2013-4-1,37.8,31.3,25.1,19.7,15.9,13.0,51,40,29,30.21,29.94,7,3,17,0.00
2013-4-2,42.8,32.1,23.8,19.3,16.3,14.0,60,41,24,30.33,30.20,7,3,13,0.00
2013-4-3,48.7,36.3,25.0,24.6,18.6,14.8,54,37,22,30.46,30.31,6,2,9,0.00
2013-4-4,58.9,43.5,30.5,38.2,28.4,20.4,57,45,31,30.31,29.99,10,4,15,0.00
2013-4-5,53.8,42.2,31.6,30.0,26.7,23.1,61,44,27,30.26,30.07,5,2,10,0.00
2013-4-6,60.2,46.5,34.8,48.0,35.0,21.4,80,55,39,30.15,29.60,10,4,22,0.03
2013-4-7,59.3,47.3,37.1,45.9,37.1,31.5,77,60,38,29.98,29.62,7,2,12,0.00
2013-4-8,63.8,47.7,38.4,51.2,41.2,32.2,88,72,53,30.00,29.66,8,2,12,0.63
2013-4-9,46.0,39.7,36.9,41.7,37.0,33.9,87,86,83,30.03,29.90,6,3,13,1.23
2013-4-10,37.0,34.8,32.2,34.4,32.0,29.5,87,86,84,30.09,29.92,7,2,13,0.96
2013-4-11,39.7,37.1,35.1,36.6,34.3,32.5,87,86,83,29.94,29.61,7,3,16,0.36
2013-4-12,42.1,37.0,34.2,35.6,32.3,27.3,86,77,66,29.84,29.58,8,3,16,0.04
2013-4-13,38.9,35.5,32.0,28.2,27.2,25.5,76,63,52,30.01,29.81,11,5,19,0.00
2013-4-14,53.3,40.7,32.6,43.4,34.0,26.0,81,70,56,30.03,29.62,9,3,16,0.14
2013-4-15,59.7,48.2,40.8,48.7,41.7,35.9,89,74,38,30.01,29.62,15,5,24,0.53
2013-4-16,54.6,44.1,33.7,36.4,33.0,28.1,77,57,36,30.31,30.01,5,2,12,0.00
2013-4-17,44.9,41.0,38.5,40.0,35.8,31.9,87,76,58,30.34,29.92,6,2,13,1.08
2013-4-18,57.8,46.4,37.8,56.0,43.4,32.9,92,86,74,29.94,29.40,18,5,27,0.72
2013-4-19,39.7,35.5,31.6,31.9,27.7,22.6,77,65,50,29.94,29.44,15,9,25,0.00
2013-4-20,46.8,36.7,26.8,23.3,20.8,18.7,67,43,23,30.39,29.94,5,1,9,0.00
2013-4-21,54.6,42.8,33.4,38.1,30.2,21.1,62,51,34,30.50,30.27,9,4,18,0.00
2013-4-22,69.1,54.5,42.7,46.0,39.7,34.3,65,49,31,30.29,30.03,9,5,18,0.00
2013-4-23,55.8,44.4,38.0,45.6,36.2,28.4,79,65,51,30.04,29.94,8,3,13,0.00
2013-4-24,55.5,44.0,33.8,30.9,27.4,25.2,61,43,24,30.09,30.01,9,4,15,0.00
2013-4-25,54.4,45.2,37.9,34.2,32.1,28.7,72,52,33,30.30,30.00,10,4,15,0.00
2013-4-26,70.5,54.7,39.9,48.7,38.8,26.8,61,45,34,30.29,30.16,12,6,22,0.00
2013-4-27,67.6,57.2,45.9,50.9,46.3,41.8,82,60,43,30.27,30.06,9,3,12,0.00
2013-4-28,75.0,60.3,46.7,50.6,46.1,40.9,74,53,30,30.05,29.83,7,1,10,0.00
2013-4-29,71.7,61.4,52.9,57.0,52.4,47.3,77,66,49,29.91,29.76,8,4,15,0.02
2013-4-30,87.7,72.5,59.8,61.0,55.9,51.8,84,53,24,29.92,29.71,16,7,27,0.02
2013-5-1,81.9,68.0,52.1,58.3,51.9,42.5,61,48,34,30.24,29.92,10,4,16,0.00
2013-5-2,55.2,46.5,37.0,42.2,37.9,33.4,82,64,51,30.34,30.23,9,5,16,0.06
2013-5-3,46.2,39.8,34.9,44.4,37.1,32.1,91,86,82,30.29,30.06,7,3,12,0.63
2013-5-4,70.6,55.6,46.2,56.8,48.9,44.3,91,75,42,30.11,30.03,6,2,12,0.21
2013-5-5,75.1,62.5,49.7,53.2,48.4,44.8,78,54,31,30.14,30.05,4,1,9,0.00
2013-5-6,76.9,63.8,50.6,49.6,45.4,41.5,63,43,27,30.15,30.05,3,1,7,0.00
2013-5-7,81.8,69.4,57.5,49.2,44.9,40.6,47,33,21,30.12,30.04,3,0,5,0.00
2013-5-8,82.1,69.5,55.3,54.8,49.1,45.2,62,41,24,30.09,30.01,4,1,7,0.00
2013-5-9,66.6,60.6,50.3,58.2,53.7,47.5,87,73,47,30.02,29.90,3,1,9,0.82
2013-5-10,51.9,46.5,41.7,46.6,42.6,39.1,87,82,74,30.04,29.91,8,3,14,0.37
2013-5-11,55.3,48.6,41.8,47.4,37.7,27.7,89,61,32,30.11,29.87,7,3,15,0.01
2013-5-12,56.4,46.4,36.4,30.8,28.4,25.3,57,39,24,30.19,30.10,6,2,13,0.00
2013-5-13,67.4,53.2,35.0,39.2,34.4,27.0,76,42,21,30.23,29.98,3,1,8,0.00
2013-5-14,90.6,72.0,53.7,61.7,51.5,39.2,60,41,24,29.98,29.65,7,3,14,0.01
2013-5-15,80.7,72.4,62.9,61.2,49.5,44.4,54,36,23,29.93,29.65,7,2,11,0.00
2013-5-16,87.1,73.1,61.2,56.2,49.7,42.4,50,35,24,30.02,29.92,3,1,11,0.00
2013-5-17,68.5,59.6,50.1,55.3,47.9,38.3,82,58,37,30.13,30.01,4,1,10,0.38
2013-5-18,82.6,68.2,54.7,66.3,57.4,47.2,73,62,47,30.10,29.98,3,1,5,0.00
2013-5-19,86.5,73.0,63.4,67.6,62.8,58.6,81,65,44,30.00,29.71,7,2,13,0.11
2013-5-20,82.8,72.6,62.2,65.4,61.9,58.2,87,64,44,29.85,29.71,8,3,15,0.48
2013-5-21,77.0,69.8,62.7,62.8,59.5,56.8,81,64,51,29.76,29.66,8,3,15,0.00
2013-5-22,71.6,63.8,57.6,61.5,57.9,54.9,88,76,61,29.82,29.68,4,1,7,1.29
2013-5-23,61.2,54.2,48.9,54.4,46.2,40.5,89,69,41,30.31,29.83,5,3,11,0.04
2013-5-24,66.8,54.4,39.8,45.2,40.3,35.0,78,52,30,30.48,30.32,2,0,5,0.00
2013-5-25,59.2,53.1,46.4,44.3,41.6,38.8,77,57,41,30.43,30.33,2,0,8,0.06
2013-5-26,67.8,56.1,46.0,51.9,44.7,38.0,75,58,36,30.34,30.19,3,1,8,0.03
2013-5-27,56.2,53.9,51.9,52.6,49.4,43.2,88,81,60,30.21,29.93,4,1,9,0.13
2013-5-28,73.3,61.7,52.0,66.1,58.1,49.5,90,85,73,29.94,29.76,4,1,8,0.65
2013-5-29,82.5,72.2,63.9,69.4,64.8,61.4,91,74,57,29.96,29.83,7,2,10,0.84
2013-5-30,82.8,72.1,63.0,71.1,65.5,59.5,90,76,57,29.94,29.76,8,3,21,0.59
2013-5-31,76.4,68.2,62.9,66.6,62.3,59.2,87,77,58,29.85,29.75,7,3,16,0.00
2013-6-1,78.9,70.2,64.6,65.4,62.3,56.4,89,72,48,29.78,29.68,8,3,16,0.00
2013-6-2,64.6,56.2,49.1,56.3,46.4,41.3,79,62,46,30.07,29.77,4,1,9,0.00
2013-6-3,71.7,60.9,47.6,49.8,45.2,41.7,76,49,30,30.15,30.05,2,0,5,0.00
2013-6-4,71.1,62.5,55.5,53.0,49.6,45.4,74,55,39,30.22,30.12,2,0,6,0.02
2013-6-5,67.8,57.7,51.6,58.6,52.5,47.3,85,78,63,30.20,29.99,2,0,5,0.20
2013-6-6,58.2,56.0,53.2,54.1,52.1,49.6,87,83,74,30.02,29.98,2,0,4,0.21
2013-6-7,69.8,60.3,53.2,54.5,51.0,48.5,82,66,45,30.05,29.97,2,0,6,0.00
2013-6-8,73.2,64.2,56.3,53.1,50.0,46.6,64,52,35,30.04,29.98,2,0,6,0.00
2013-6-9,77.9,67.3,57.1,63.3,56.8,49.1,86,63,48,30.06,29.85,3,1,8,0.36
2013-6-10,79.0,71.0,61.1,65.3,62.6,58.3,89,70,53,29.92,29.84,3,0,7,0.01
2013-6-11,83.4,73.8,61.4,67.1,63.3,57.1,83,64,48,29.98,29.86,6,1,9,0.00
2013-6-12,79.3,71.4,64.2,69.5,65.4,61.4,89,77,65,29.98,29.70,5,1,9,0.81
2013-6-13,78.1,68.6,58.2,60.8,57.9,54.8,88,64,42,30.11,29.80,4,2,7,0.00
2013-6-14,79.1,69.4,56.4,60.5,57.0,51.7,80,59,41,30.21,30.06,4,1,7,0.00
2013-6-15,82.7,70.3,59.5,69.3,62.3,53.4,85,70,55,30.11,29.88,5,2,10,0.18
2013-6-16,84.6,75.9,66.3,67.8,61.3,55.1,89,57,29,29.99,29.92,5,2,11,0.91
2013-6-17,87.1,75.5,65.9,62.4,58.2,53.0,65,48,32,30.02,29.94,5,1,12,0.00
2013-6-18,72.3,65.1,57.0,58.8,54.2,49.3,74,61,46,30.14,30.02,3,1,6,0.00
2013-6-19,80.7,68.4,52.9,57.0,52.5,44.8,75,50,33,30.20,30.11,2,0,4,0.00
2013-6-20,88.7,75.2,60.2,64.3,57.6,47.8,61,47,30,30.20,30.09,3,1,8,0.00
2013-6-21,77.3,71.8,66.3,66.8,64.2,61.7,87,72,61,30.15,29.93,7,1,11,0.31
2013-6-22,81.6,71.6,66.4,72.7,66.5,63.5,89,81,63,30.17,29.98,6,2,11,0.51
2013-6-23,85.6,73.4,63.5,73.8,67.1,60.8,89,77,60,30.11,29.92,6,2,15,0.65
2013-6-24,81.4,72.5,68.5,70.2,66.3,64.1,87,77,60,30.08,29.91,6,2,12,0.00
2013-6-25,81.9,72.0,64.9,73.0,67.6,62.6,91,83,68,30.00,29.86,7,1,13,2.72
2013-6-26,83.2,75.0,65.9,71.0,68.6,63.3,90,77,58,29.86,29.77,3,1,7,1.80
2013-6-27,88.0,78.8,70.3,71.2,67.8,61.0,88,65,41,29.87,29.77,8,2,17,0.00
2013-6-28,79.1,70.4,65.6,65.7,61.4,58.1,88,68,49,29.81,29.71,5,1,9,0.45
2013-6-29,70.0,65.6,62.9,62.7,60.9,58.3,90,81,63,29.89,29.69,2,0,4,0.39
2013-6-30,76.7,67.6,58.1,59.7,55.3,50.8,78,58,42,30.10,29.89,0,0,0,0.00
2013-7-1,77.3,68.8,58.9,58.5,54.4,51.0,70,53,35,30.17,30.10,3,0,6,0.00
2013-7-2,74.2,67.1,58.5,57.3,53.6,47.5,78,56,30,30.17,30.11,2,0,7,0.00
2013-7-3,71.2,64.1,57.2,61.6,56.4,50.0,81,70,62,30.14,30.08,2,0,4,0.00
2013-7-4,84.1,72.6,59.7,64.5,60.7,56.5,86,62,38,30.13,30.06,2,1,9,0.00
2013-7-5,85.4,75.7,64.4,67.8,64.1,59.5,80,62,44,30.12,30.05,5,2,10,0.00
2013-7-6,87.4,76.4,65.5,68.9,64.9,59.9,78,62,45,30.10,30.01,4,1,8,0.00
2013-7-7,88.9,78.6,68.0,72.7,68.9,64.1,85,67,49,30.04,29.98,4,2,9,0.00
2013-7-8,87.7,79.3,71.0,75.8,71.9,68.3,89,74,59,30.03,29.97,6,2,10,0.32
2013-7-9,84.6,77.0,71.5,74.6,71.8,68.4,90,81,66,30.05,29.89,7,2,12,0.09
2013-7-10,78.7,74.2,67.6,73.1,63.7,58.7,86,65,44,30.07,29.91,4,1,10,0.00
2013-7-11,81.2,72.4,62.0,61.9,58.4,55.2,74,55,37,30.18,30.06,3,0,5,0.00
2013-7-12,84.4,73.9,61.1,61.5,57.2,52.6,70,49,30,30.21,30.13,4,0,7,0.00
2013-7-13,86.3,74.0,63.0,66.7,60.7,55.6,72,57,40,30.21,30.13,2,1,6,0.00
2013-7-14,88.6,77.7,64.2,70.2,65.7,59.0,80,61,45,30.27,30.19,4,1,8,0.00
2013-7-15,92.8,82.1,69.9,74.5,70.8,65.4,82,64,47,30.33,30.25,2,0,4,0.00
2013-7-16,91.2,83.3,74.1,76.5,73.8,70.7,87,69,52,30.34,30.29,4,1,8,0.00
2013-7-17,94.7,84.0,75.0,77.0,74.2,71.2,85,69,45,30.36,30.22,5,1,9,0.14
2013-7-18,93.1,84.1,74.2,74.9,73.1,70.4,85,65,46,30.24,29.98,6,2,11,0.00
2013-7-19,89.9,81.5,75.7,74.8,70.9,64.7,74,65,54,29.98,29.82,7,3,15,0.05
2013-7-20,86.2,76.9,66.4,66.7,63.8,59.5,74,58,43,30.01,29.90,3,1,6,0.00
2013-7-21,83.3,69.2,63.0,69.3,62.1,57.4,90,74,54,30.02,29.94,9,1,15,0.91
2013-7-22,86.4,73.0,63.1,72.3,65.8,60.3,89,75,52,29.95,29.77,9,2,12,0.42
2013-7-23,74.4,68.9,62.6,62.7,58.0,54.6,85,62,45,30.03,29.79,8,2,11,0.01
2013-7-24,74.2,66.1,56.6,58.3,54.2,52.0,84,60,37,30.13,30.04,2,0,3,0.00
2013-7-25,79.6,68.9,57.8,65.3,59.5,52.9,83,66,50,30.13,30.03,4,1,9,0.16
2013-7-26,75.5,67.6,63.6,67.8,61.4,55.7,89,77,48,30.05,29.90,6,2,10,0.16
2013-7-27,63.1,57.2,53.2,55.8,48.8,45.4,77,67,53,30.01,29.92,8,2,14,0.00
2013-7-28,67.1,58.8,52.4,54.2,50.9,48.2,84,69,53,30.06,29.90,5,2,11,0.02
2013-7-29,75.4,65.5,55.6,61.8,56.1,51.1,80,65,51,30.20,30.06,3,0,6,0.00
2013-7-30,70.4,65.0,58.2,62.7,59.1,54.7,85,77,66,30.21,30.13,2,0,4,0.00
2013-7-31,80.5,69.5,64.1,66.8,63.3,61.1,88,77,55,30.14,30.02,6,1,13,0.09
2013-8-1,78.2,70.1,61.5,61.2,58.9,57.0,86,63,40,30.06,29.97,5,1,9,0.00
2013-8-2,79.9,70.4,62.7,66.9,60.8,56.2,88,67,44,30.01,29.90,6,1,13,0.40
2013-8-3,77.3,69.2,59.1,59.0,55.0,52.8,74,54,38,30.18,30.01,4,0,9,0.00
2013-8-4,75.1,67.3,57.1,60.2,55.7,51.4,79,60,41,30.27,30.15,2,0,3,0.00
2013-8-5,72.2,65.3,59.4,63.3,59.4,54.9,87,77,65,30.16,29.92,5,1,9,0.03
2013-8-6,83.9,73.8,66.0,70.9,67.1,63.3,90,76,58,29.93,29.86,3,1,7,0.00
2013-8-7,80.8,73.6,67.2,70.0,65.8,59.9,89,72,55,30.03,29.82,4,1,8,0.00
2013-8-8,78.3,69.8,61.7,63.3,61.0,57.6,86,68,50,30.10,30.03,2,0,4,0.00
2013-8-9,78.8,69.9,61.2,65.5,59.9,55.0,77,64,50,30.10,30.03,8,1,13,0.00
2013-8-10,75.5,68.8,59.2,58.6,56.5,53.1,75,58,45,30.21,30.11,2,0,4,0.00
2013-8-11,75.6,66.9,59.1,65.6,60.4,54.5,85,75,64,30.19,30.08,6,1,10,0.10
2013-8-12,80.7,71.5,66.1,67.1,63.9,58.4,90,73,50,30.09,29.97,1,0,3,0.06
2013-8-13,69.5,64.3,55.8,57.8,52.2,47.7,77,58,44,30.20,30.03,3,1,5,0.00
2013-8-14,74.6,64.6,53.5,55.7,52.8,48.9,80,60,39,30.27,30.17,2,0,5,0.00
2013-8-15,77.4,67.3,59.0,57.9,54.7,52.3,74,58,33,30.20,30.14,3,0,7,0.00
2013-8-16,79.4,69.9,60.0,58.8,55.8,53.2,74,54,35,30.24,30.17,2,0,4,0.00
2013-8-17,82.6,71.5,60.6,59.7,56.9,53.3,72,53,34,30.29,30.21,1,0,4,0.00
2013-8-18,83.2,71.8,60.4,62.2,57.6,53.4,73,55,34,30.26,30.15,3,0,5,0.00
2013-8-19,82.4,71.6,60.3,65.0,60.6,55.3,79,62,43,30.16,30.08,5,1,12,0.00
2013-8-20,87.4,75.4,65.0,68.5,64.5,60.5,85,65,41,30.13,30.06,5,2,9,0.00
2013-8-21,89.9,78.6,69.5,71.2,68.0,64.2,79,65,46,30.08,29.99,6,3,13,0.00
2013-8-22,78.9,72.4,67.7,70.4,67.5,64.9,89,81,69,30.20,30.04,8,1,16,0.55
2013-8-23,83.3,72.1,61.4,65.1,60.9,55.9,87,63,41,30.23,30.16,3,1,7,0.00
2013-8-24,84.5,73.2,61.3,69.4,62.2,53.0,75,62,53,30.29,30.21,5,1,10,0.00
2013-8-25,89.7,78.2,68.5,73.5,67.6,62.6,81,65,47,30.25,30.15,7,3,11,0.00
2013-8-26,91.2,79.7,70.9,76.3,70.3,64.7,76,68,54,30.17,30.03,5,3,11,0.00
2013-8-27,94.2,83.2,74.1,75.7,72.5,68.4,80,66,47,30.04,29.87,9,3,15,0.00
2013-8-28,82.9,77.7,73.0,73.5,70.8,68.5,87,75,61,30.11,29.91,2,0,6,0.00
2013-8-29,88.7,77.4,66.6,71.3,67.9,63.3,88,69,47,30.14,30.04,3,1,7,0.00
2013-8-30,94.6,80.0,70.2,78.6,71.8,67.1,88,72,53,30.03,29.83,6,2,10,0.00
2013-8-31,81.5,73.0,66.4,69.1,65.4,61.4,80,72,59,29.95,29.86,3,0,8,0.00
2013-9-1,84.9,72.7,65.0,70.8,65.1,59.2,91,74,46,29.91,29.79,6,1,12,0.00
2013-9-2,71.6,65.3,59.4,59.3,56.9,52.8,82,68,52,30.06,29.90,2,1,5,0.00
2013-9-3,74.9,63.8,52.5,59.5,54.0,48.3,82,65,41,30.15,30.06,1,0,4,0.00
2013-9-4,84.2,70.0,56.1,65.8,59.4,51.5,80,64,43,30.16,30.08,6,1,10,0.00
2013-9-5,78.4,69.6,62.5,64.5,60.2,51.7,83,67,49,30.31,30.16,4,1,7,0.00
2013-9-6,88.0,71.9,58.3,68.0,59.2,48.9,71,58,43,30.27,30.04,5,1,9,0.00
2013-9-7,91.2,77.7,66.8,72.9,67.0,61.6,81,64,46,30.04,29.94,7,1,11,0.00
2013-9-8,76.9,68.9,63.6,69.5,63.3,58.6,82,78,75,30.12,30.01,4,1,11,0.00
2013-9-9,92.9,77.2,66.3,77.4,69.1,62.4,88,72,50,30.04,29.84,6,2,10,0.00
2013-9-10,94.8,83.3,74.2,69.8,65.5,63.1,67,49,29,30.01,29.90,9,3,17,0.00
2013-9-11,83.5,74.8,67.8,68.2,65.7,62.5,85,68,51,30.13,30.01,6,1,11,0.13
2013-9-12,74.2,67.4,61.0,64.1,56.1,49.6,82,61,40,30.17,30.03,4,1,9,0.00
2013-9-13,66.8,57.3,48.4,49.2,44.2,42.5,77,54,32,30.26,30.17,3,1,8,0.00
2013-9-14,73.1,59.6,47.3,49.8,46.3,41.9,78,55,33,30.20,30.03,5,1,10,0.00
2013-9-15,61.4,56.8,54.0,55.7,52.3,47.1,87,81,51,30.24,30.01,3,1,7,0.54
2013-9-16,66.1,56.0,45.9,53.2,46.7,40.6,84,65,44,30.43,30.26,3,1,6,0.00
2013-9-17,69.9,57.6,46.2,56.0,50.1,42.2,84,71,52,30.38,30.13,3,1,7,0.01
2013-9-18,76.4,66.9,59.2,67.6,60.7,54.1,85,76,66,30.13,29.93,6,2,11,0.01
2013-9-19,87.5,72.3,67.3,73.2,67.3,63.6,90,81,54,29.95,29.78,8,2,13,1.22
2013-9-20,69.7,65.1,58.4,65.0,59.4,53.2,90,78,59,29.90,29.80,7,4,13,0.00
2013-9-21,62.5,56.0,51.3,53.3,48.6,46.2,84,70,52,29.99,29.89,3,1,8,0.00
2013-9-22,66.9,55.2,45.3,50.7,46.5,41.5,82,67,44,30.11,29.99,3,0,4,0.00
2013-9-23,71.0,57.4,47.3,56.1,49.0,43.4,83,68,48,30.16,30.06,3,1,7,0.00
2013-9-24,73.5,59.9,49.2,55.3,50.8,45.5,84,67,42,30.08,29.99,2,0,5,0.00
2013-9-25,73.3,60.3,50.2,56.1,51.9,46.9,87,69,44,30.05,29.98,3,0,5,0.00
2013-9-26,78.8,63.6,50.5,58.7,52.9,47.3,89,64,36,30.11,30.02,6,1,12,0.01
2013-9-27,82.4,66.9,55.2,57.7,53.7,50.2,79,58,30,30.18,30.07,4,1,11,0.00
2013-9-28,80.6,66.2,57.2,64.7,56.4,50.3,87,65,48,30.08,29.88,10,3,16,0.21
2013-9-29,71.9,59.7,49.0,52.6,48.6,45.6,86,62,33,30.12,30.02,3,0,6,0.01
2013-9-30,74.7,61.0,49.2,51.3,47.4,43.3,75,54,32,30.04,29.86,10,3,15,0.00
2013-10-1,80.6,67.3,56.8,63.4,57.4,49.1,86,65,47,30.00,29.88,8,3,14,0.00
2013-10-2,79.2,66.3,55.6,56.2,48.8,46.4,68,46,24,30.16,30.02,3,1,5,0.00
2013-10-3,75.2,66.5,60.0,66.8,60.0,45.3,87,75,46,30.03,29.87,5,1,13,0.00
2013-10-4,67.9,65.9,63.7,64.8,63.2,61.1,90,88,86,30.05,29.91,3,1,9,0.29
2013-10-5,72.8,65.8,59.7,69.0,63.2,53.3,93,89,74,30.00,29.80,7,1,13,0.18
2013-10-6,58.4,51.4,46.1,50.2,43.1,40.9,82,66,46,29.83,29.73,8,3,14,0.02
2013-10-7,68.7,54.7,45.2,49.1,45.0,41.5,85,65,36,30.10,29.77,7,2,15,0.00
2013-10-8,76.1,61.0,49.1,53.9,47.4,42.4,71,54,30,30.19,30.10,7,1,13,0.00
2013-10-9,74.9,62.0,51.9,53.1,48.0,44.0,76,54,30,30.25,30.15,5,2,10,0.00
2013-10-10,76.1,61.7,50.7,53.5,49.6,45.5,77,58,33,30.21,30.07,3,0,8,0.00
2013-10-11,76.9,63.5,53.7,60.6,54.5,48.9,82,67,47,30.09,29.95,4,1,12,0.00
2013-10-12,69.0,62.1,52.9,58.8,51.1,40.5,83,61,36,30.19,29.94,9,3,20,0.00
2013-10-13,63.5,53.1,44.4,42.5,38.9,37.3,69,50,30,30.44,30.19,4,1,7,0.00
2013-10-14,64.5,52.1,42.1,47.7,41.8,37.0,80,61,41,30.46,30.17,3,1,7,0.00
2013-10-15,59.4,52.9,49.2,56.6,47.8,43.0,90,78,66,30.16,29.78,8,3,16,0.25
2013-10-16,52.7,49.6,47.6,47.8,45.4,42.9,86,81,71,29.99,29.84,7,3,12,0.04
2013-10-17,55.6,48.5,45.4,45.4,42.8,39.3,86,76,53,29.98,29.86,3,0,8,0.09
2013-10-18,47.4,44.5,41.1,41.2,38.2,36.5,83,72,61,29.99,29.85,7,2,14,0.00
2013-10-19,51.4,42.6,36.5,39.5,35.9,31.8,80,70,41,29.96,29.77,7,2,13,0.03
2013-10-20,48.5,42.8,34.4,45.0,38.3,30.6,85,79,66,29.88,29.74,4,1,8,0.10
2013-10-21,46.7,40.0,33.7,42.6,30.6,24.6,81,60,44,30.00,29.79,7,3,13,0.00
2013-10-22,47.6,37.1,28.1,32.2,27.4,22.1,70,58,43,30.00,29.93,4,1,7,0.00
2013-10-23,44.3,36.5,30.3,30.8,27.8,25.2,75,62,41,30.05,29.98,3,1,6,0.00
2013-10-24,46.2,37.3,32.1,29.5,26.6,24.6,69,55,39,30.32,30.05,5,2,10,0.00
2013-10-25,51.8,41.1,30.8,33.2,28.4,24.2,68,51,35,30.38,29.99,10,3,17,0.00
2013-10-26,50.4,45.3,40.2,37.1,31.3,28.8,63,47,35,30.11,29.83,7,3,14,0.00
2013-10-27,55.4,43.0,32.0,34.4,30.7,26.1,71,53,32,30.11,29.93,6,2,14,0.00
2013-10-28,44.0,41.1,37.9,33.1,32.0,29.3,74,61,54,30.43,30.05,4,2,9,0.00
2013-10-29,51.8,44.3,37.7,42.0,36.3,29.1,75,65,57,30.42,30.19,3,1,7,0.00
2013-10-30,55.1,50.5,44.5,52.7,47.4,39.8,90,85,76,30.17,29.81,4,0,9,0.00
2013-10-31,61.6,55.5,42.9,59.3,52.9,38.8,91,88,80,29.81,29.35,9,3,15,0.77
2013-11-1,47.5,43.6,41.0,42.3,39.1,36.4,81,79,74,29.79,29.41,9,4,15,0.01
2013-11-2,45.7,40.9,37.0,36.3,34.9,32.0,83,72,59,30.18,29.79,4,1,7,0.00
2013-11-3,51.9,41.7,33.1,38.7,33.9,29.1,84,67,44,30.31,30.18,4,1,7,0.00
2013-11-4,52.9,47.7,41.2,45.2,39.9,35.4,79,67,56,30.22,30.07,8,3,18,0.00
2013-11-5,55.3,51.2,48.5,49.6,46.7,43.8,89,80,67,30.28,29.91,8,2,17,0.40
2013-11-6,54.3,42.8,33.2,52.4,37.5,24.9,91,76,54,30.19,29.78,9,4,13,0.20
2013-11-7,43.3,35.6,29.3,32.7,27.9,23.5,74,65,53,30.27,30.20,6,3,12,0.00
2013-11-8,45.0,37.6,27.8,35.1,30.1,23.9,79,67,54,30.31,29.84,10,2,18,0.00
2013-11-9,51.8,46.0,38.2,41.0,35.9,26.8,72,59,44,30.13,29.81,16,7,26,0.00
2013-11-10,49.1,41.6,35.5,32.7,30.3,26.7,63,54,40,30.36,30.14,6,3,14,0.00
2013-11-11,43.5,32.9,21.6,33.5,25.1,13.5,82,64,56,30.57,30.09,8,4,12,0.04
2013-11-12,30.8,23.4,17.6,17.9,13.8,10.9,65,56,40,30.72,30.57,6,4,9,0.00
2013-11-13,41.2,29.7,18.5,21.7,17.2,11.8,66,49,32,30.55,30.08,12,7,17,0.00
2013-11-14,47.5,39.2,32.0,32.1,26.6,20.0,63,50,41,30.07,29.92,10,5,16,0.00
2013-11-15,56.1,43.9,35.8,40.3,33.7,28.2,74,58,45,29.97,29.91,6,3,9,0.00
2013-11-16,56.3,47.6,38.3,53.2,44.4,33.1,90,85,74,29.90,29.52,13,7,27,0.12
2013-11-17,56.6,49.6,38.5,53.5,46.0,32.5,90,83,71,29.72,29.24,12,5,23,0.65
2013-11-18,38.2,34.1,27.5,31.7,25.9,20.8,73,63,51,30.29,29.73,11,4,17,0.00
2013-11-19,41.4,32.1,23.9,28.7,24.2,18.5,73,64,47,30.38,30.25,5,1,9,0.00
2013-11-20,40.6,36.4,32.6,33.6,30.0,27.6,84,71,56,30.26,30.10,8,3,14,0.08
2013-11-21,43.0,40.0,37.1,37.9,35.9,33.6,84,80,74,30.28,30.11,4,1,7,0.00
2013-11-22,37.4,31.1,23.6,33.5,24.1,14.6,84,67,51,30.50,30.29,7,4,12,0.02
2013-11-23,23.3,17.8,12.0,15.3,7.0,2.6,61,49,37,30.75,30.43,10,5,16,0.00
2013-11-24,27.6,18.4,10.0,9.6,6.3,2.5,61,46,28,30.81,30.25,12,5,19,0.00
2013-11-25,30.3,26.3,21.0,25.1,19.3,9.7,77,66,44,30.25,30.04,12,7,18,0.00
2013-11-26,33.0,25.8,13.2,25.8,16.9,3.3,74,58,43,30.25,30.04,8,3,13,0.00
2013-11-27,27.7,18.9,10.3,14.0,9.3,2.6,65,54,41,30.30,30.21,4,2,8,0.00
2013-11-28,30.5,25.5,22.2,18.1,15.3,13.3,58,53,47,30.51,30.14,5,2,11,0.00
2013-11-29,32.6,25.5,16.7,21.5,16.9,10.5,68,59,47,30.62,30.35,5,2,10,0.00
2013-11-30,42.4,34.1,26.6,32.0,26.7,20.8,73,66,56,30.34,30.06,8,3,11,0.00
2013-12-1,40.0,34.8,30.0,29.3,26.9,25.1,76,64,51,30.17,30.01,3,1,4,0.00
2013-12-2,41.1,33.9,26.2,33.9,28.5,21.8,83,74,65,30.00,29.77,4,1,7,0.05
2013-12-3,39.4,37.3,34.5,37.0,34.6,31.3,88,86,83,29.78,29.70,2,1,7,0.10
2013-12-4,48.5,40.5,33.3,46.6,38.0,28.4,91,87,76,29.79,29.50,16,4,27,0.05
2013-12-5,32.7,21.1,14.5,28.1,13.3,7.0,77,61,49,30.28,29.70,17,8,25,0.00
2013-12-6,17.8,12.1,8.1,6.9,3.4,0.3,63,56,45,30.90,30.27,4,2,9,0.00
2013-12-7,16.8,9.6,3.5,3.4,-0.2,-3.4,63,51,36,31.42,30.56,4,1,8,0.00
2013-12-8,22.5,17.2,11.5,17.8,9.4,1.1,75,60,46,30.60,29.97,3,1,8,0.00
2013-12-9,18.5,9.5,-2.7,13.8,2.8,-9.3,74,63,53,30.32,29.94,14,5,23,0.00
2013-12-10,19.1,8.7,-4.0,10.5,0.9,-10.6,69,58,47,30.25,29.91,12,6,20,0.00
2013-12-11,15.5,8.5,-2.4,9.9,-0.7,-11.1,70,53,37,30.51,30.23,6,2,12,0.00
2013-12-12,17.9,9.4,-2.1,9.5,1.2,-9.8,64,56,49,30.46,30.16,8,4,14,0.00
2013-12-13,25.6,19.9,14.7,17.7,12.9,8.4,70,64,54,30.19,30.12,5,2,9,0.00
2013-12-14,24.5,21.4,18.5,18.7,16.2,12.9,77,72,68,30.17,29.94,6,3,12,0.00
2013-12-15,19.6,12.3,6.8,13.3,3.0,-4.3,68,53,41,30.12,29.93,7,3,11,0.00
2013-12-16,16.3,10.3,2.5,9.9,1.8,-6.6,73,56,44,30.14,29.96,4,2,8,0.00
2013-12-17,34.3,24.5,15.0,25.7,17.6,10.7,79,67,50,30.04,29.90,9,5,16,0.09
2013-12-18,34.5,24.0,13.9,24.8,15.7,6.5,72,60,47,30.07,29.75,9,4,15,0.01
2013-12-19,31.6,28.9,23.6,25.9,23.4,20.0,82,72,60,29.96,29.78,6,2,11,0.00
2013-12-20,24.6,22.4,20.7,20.6,18.8,17.2,83,80,78,29.88,29.79,6,2,8,0.00
2013-12-21,26.7,25.1,23.3,23.5,21.9,20.1,84,82,80,29.91,29.75,4,2,6,0.00
2013-12-22,28.4,25.0,23.2,23.2,21.1,19.2,84,79,71,30.15,29.74,5,2,9,0.07
2013-12-23,24.3,10.7,-1.8,20.0,4.4,-8.5,77,65,55,30.90,30.15,7,4,11,0.01
2013-12-24,14.2,4.0,-5.0,5.8,-2.9,-11.6,70,61,54,30.82,30.27,6,2,8,0.00
2013-12-25,25.2,20.0,11.0,19.1,15.0,5.9,77,73,69,30.27,30.08,6,4,10,0.00
2013-12-26,30.3,22.3,11.2,23.0,16.4,5.9,73,69,62,30.23,30.12,6,2,10,0.00
2013-12-27,35.7,27.9,18.4,29.2,22.5,13.9,78,73,67,30.28,30.05,10,3,17,0.00
2013-12-28,41.5,34.7,27.1,33.0,28.8,23.1,79,72,62,30.08,29.80,9,5,15,0.04
2013-12-29,37.0,20.2,-1.6,30.4,13.5,-10.1,80,65,52,30.24,29.75,11,4,16,0.00
2013-12-30,6.8,0.5,-7.0,-3.1,-9.2,-15.6,60,49,35,30.30,30.18,3,1,5,0.00
2013-12-31,11.3,4.9,-1.1,2.9,-2.2,-7.6,64,60,53,30.33,30.17,3,1,5,0.00
2014-1-1,9.9,5.1,0.9,1.3,-3.2,-7.7,59,55,50,30.34,30.28,6,3,9,0.00
2014-1-2,12.5,7.5,2.2,2.6,-1.1,-6.5,65,55,47,30.42,30.25,7,2,11,0.00